Time;durP1;ratioP1;P1;durP2;ratioP2;P2;SDS_P1;SDS_P2;PMS_P1;PMS_P2;Temp;Humidity;BMP_temperature;BMP_pressure;BME280_temperature;BME280_humidity;BME280_pressure;Samples;Min_cycle;Max_cycle;Signal;HPM_P1;HPM_P2
2022/05/24 00:00:31;;;;;;;11.80;6.35;;;16.10;99.90;;;;;;5043900;28;20477;-74
2022/05/24 00:02:57;;;;;;;15.00;6.47;;;16.10;99.90;;;;;;5045003;28;20033;-73
2022/05/24 00:05:24;;;;;;;10.18;4.85;;;15.90;99.90;;;;;;5045371;28;20152;-70
2022/05/24 00:07:54;;;;;;;8.35;4.35;;;15.70;99.90;;;;;;5045234;28;20026;-72
2022/05/24 00:10:26;;;;;;;8.38;4.82;;;15.70;99.90;;;;;;5043406;28;20041;-74
2022/05/24 00:12:51;;;;;;;7.63;4.45;;;15.70;99.90;;;;;;5043897;28;20037;-75
2022/05/24 00:15:27;;;;;;;7.25;4.22;;;15.50;99.90;;;;;;5043115;28;20135;-72
2022/05/24 00:18:01;;;;;;;9.95;4.57;;;15.40;99.90;;;;;;5045012;28;20029;-70
2022/05/24 00:20:29;;;;;;;;;;;15.30;99.90;;;;;;5045663;28;20454;-73
2022/05/24 00:22:55;;;;;;;6.93;4.10;;;15.20;99.90;;;;;;5044783;28;19955;-72
2022/05/24 00:25:21;;;;;;;6.25;4.07;;;15.20;99.90;;;;;;5044795;28;20041;-72
2022/05/24 00:27:47;;;;;;;6.72;4.60;;;15.20;99.90;;;;;;5045077;28;20029;-72
2022/05/24 00:30:14;;;;;;;10.75;5.10;;;15.10;99.90;;;;;;5044434;28;20037;-73
2022/05/24 00:32:42;;;;;;;8.73;4.57;;;15.10;99.90;;;;;;5043998;28;20056;-71
2022/05/24 00:35:08;;;;;;;8.93;4.57;;;15.10;99.90;;;;;;5044995;28;20138;-70
2022/05/24 00:37:37;;;;;;;11.85;5.05;;;15.10;99.90;;;;;;5044504;28;20108;-70
2022/05/24 00:40:04;;;;;;;7.13;4.15;;;15.00;99.90;;;;;;5043355;28;20041;-73
2022/05/24 00:42:42;;;;;;;7.28;4.53;;;15.00;99.90;;;;;;5044274;28;20057;-72
2022/05/24 00:45:29;;;;;;;7.28;4.68;;;14.90;99.90;;;;;;5044603;28;20532;-72
2022/05/24 00:48:07;;;;;;;7.47;4.88;;;14.90;99.90;;;;;;5044691;28;20036;-72
2022/05/24 00:50:40;;;;;;;10.38;5.38;;;14.80;99.90;;;;;;5044654;28;20108;-74
2022/05/24 00:53:21;;;;;;;9.05;5.15;;;14.80;99.90;;;;;;5044206;28;20481;-69
2022/05/24 00:55:54;;;;;;;10.65;5.03;;;14.80;99.90;;;;;;5044920;28;20071;-72
2022/05/24 00:58:35;;;;;;;9.83;5.17;;;14.70;99.90;;;;;;5043265;28;20034;-71
2022/05/24 01:01:04;;;;;;;11.57;5.07;;;14.70;99.90;;;;;;5043232;28;20264;-71
2022/05/24 01:03:30;;;;;;;9.02;5.43;;;14.70;99.90;;;;;;5043073;28;20048;-71
2022/05/24 01:05:55;;;;;;;11.93;5.70;;;14.70;99.90;;;;;;5044261;28;20707;-72
2022/05/24 01:08:21;;;;;;;15.50;6.35;;;14.70;99.90;;;;;;5044635;28;20029;-74
2022/05/24 01:10:53;;;;;;;9.38;5.82;;;14.70;99.90;;;;;;5044075;28;20374;-69
2022/05/24 01:13:25;;;;;;;9.93;5.80;;;14.70;99.90;;;;;;5043876;28;20036;-72
2022/05/24 01:15:51;;;;;;;9.68;4.75;;;14.70;99.90;;;;;;5044777;28;20037;-73
2022/05/24 01:18:18;;;;;;;9.93;5.93;;;14.70;99.90;;;;;;5044504;28;20034;-71
2022/05/24 01:20:47;;;;;;;11.77;5.97;;;14.70;99.90;;;;;;5044020;28;20029;-70
2022/05/24 01:23:45;;;;;;;10.85;6.10;;;14.70;99.90;;;;;;5045012;28;20030;-73
2022/05/24 01:26:46;;;;;;;14.25;5.70;;;14.60;99.90;;;;;;5047815;28;20029;-74
2022/05/24 01:29:12;;;;;;;9.10;5.25;;;14.60;99.90;;;;;;5044610;28;20042;-72
2022/05/24 01:37:10;;;;;;;15.27;6.20;;;14.60;99.90;;;;;;5048466;28;20044;-70
2022/05/24 01:39:36;;;;;;;13.30;5.47;;;14.60;99.90;;;;;;5047728;28;20475;-70
2022/05/24 01:42:03;;;;;;;10.27;5.95;;;14.60;99.90;;;;;;5047902;28;20082;-70
2022/05/24 01:44:57;;;;;;;12.75;6.18;;;14.60;99.90;;;;;;5046782;28;20026;-70
2022/05/24 01:47:24;;;;;;;10.93;5.88;;;14.60;99.90;;;;;;4989584;28;20064;-71
2022/05/24 01:49:54;;;;;;;11.20;5.97;;;14.50;99.90;;;;;;5047534;28;20479;-71
2022/05/24 01:52:22;;;;;;;10.85;5.88;;;14.50;99.90;;;;;;5030242;28;20029;-70
2022/05/24 01:54:57;;;;;;;18.40;6.97;;;14.50;99.90;;;;;;5047454;28;20060;-72
2022/05/24 01:57:27;;;;;;;12.90;5.13;;;14.50;99.90;;;;;;5047761;28;20081;-70
2022/05/24 01:59:56;;;;;;;13.07;6.32;;;14.60;99.90;;;;;;5047781;28;20021;-70
2022/05/24 02:02:22;;;;;;;13.65;5.32;;;14.60;99.90;;;;;;5046787;28;20026;-71
2022/05/24 02:04:48;;;;;;;12.05;5.10;;;14.50;99.90;;;;;;5047507;28;20505;-71
2022/05/24 02:07:24;;;;;;;10.23;5.05;;;14.50;99.90;;;;;;5047282;28;20100;-71
2022/05/24 02:09:56;;;;;;;9.57;4.72;;;14.50;99.90;;;;;;5046913;28;20386;-69
2022/05/24 02:12:30;;;;;;;11.05;5.22;;;14.50;99.90;;;;;;5047550;28;20025;-71
2022/05/24 02:15:10;;;;;;;9.00;5.28;;;14.50;99.90;;;;;;5047532;28;20033;-69
2022/05/24 02:18:04;;;;;;;8.15;4.75;;;14.50;99.90;;;;;;5047124;28;20525;-73
2022/05/24 02:20:33;;;;;;;11.25;5.68;;;14.50;99.90;;;;;;5047412;28;20028;-69
2022/05/24 02:22:59;;;;;;;5.85;3.65;;;14.60;99.90;;;;;;5046970;28;20064;-70
2022/05/24 02:25:50;;;;;;;11.07;5.22;;;14.50;99.90;;;;;;5047418;28;20033;-71
2022/05/24 02:28:17;;;;;;;7.93;4.68;;;14.60;99.90;;;;;;5047235;28;20093;-71
2022/05/24 02:30:47;;;;;;;14.50;4.32;;;14.50;99.90;;;;;;5046726;28;20043;-72
2022/05/24 02:33:13;;;;;;;10.18;4.70;;;14.50;99.90;;;;;;5047325;28;20029;-71
2022/05/24 02:35:39;;;;;;;7.53;4.07;;;14.50;99.90;;;;;;5046101;28;20082;-70
2022/05/24 02:38:06;;;;;;;6.97;4.78;;;14.50;99.90;;;;;;5046738;28;20025;-70
2022/05/24 02:43:16;;;;;;;;;;;14.60;99.90;;;;;;5066541;28;20064;-70
2022/05/24 02:45:41;;;;;;;8.88;3.28;;;14.60;99.90;;;;;;5057153;28;19905;-69
2022/05/24 02:48:08;;;;;;;6.10;2.97;;;14.50;99.90;;;;;;5066619;28;20085;-71
2022/05/24 02:50:33;;;;;;;10.63;2.97;;;14.50;99.90;;;;;;5066478;28;20497;-69
2022/05/24 02:52:59;;;;;;;5.95;3.03;;;14.40;99.90;;;;;;5066843;28;20053;-71
2022/05/24 02:55:24;;;;;;;5.22;2.78;;;14.50;99.90;;;;;;5066801;28;20040;-70
2022/05/24 02:57:51;;;;;;;5.57;3.20;;;14.40;99.90;;;;;;5066154;28;20029;-70
2022/05/24 03:00:22;;;;;;;5.35;2.75;;;14.40;99.90;;;;;;5066855;28;20108;-71
2022/05/24 03:02:50;;;;;;;5.03;2.90;;;14.30;99.90;;;;;;5066366;28;20033;-70
2022/05/24 03:05:17;;;;;;;5.53;2.90;;;14.40;99.90;;;;;;5066171;28;20039;-71
2022/05/24 03:10:30;;;;;;;4.28;2.40;;;14.20;99.90;;;;;;5066312;28;20051;-71
2022/05/24 03:15:42;;;;;;;10.35;2.53;;;14.20;99.90;;;;;;5066583;28;20089;-72
2022/05/24 03:18:11;;;;;;;6.05;2.35;;;14.20;99.90;;;;;;5060572;28;20032;-71
2022/05/24 03:20:37;;;;;;;2.75;2.08;;;14.20;99.90;;;;;;5056078;28;20081;-69
2022/05/24 03:23:03;;;;;;;12.90;2.22;;;14.10;99.90;;;;;;5046113;28;20125;-70
2022/05/24 03:25:31;;;;;;;4.82;2.58;;;14.10;99.90;;;;;;5056487;28;20501;-70
2022/05/24 03:27:57;;;;;;;5.18;2.47;;;14.10;99.90;;;;;;5065835;28;20025;-70
2022/05/24 03:30:23;;;;;;;6.75;2.33;;;14.00;99.90;;;;;;5065460;28;20037;-70
2022/05/24 03:32:53;;;;;;;8.23;3.00;;;14.10;99.90;;;;;;5065648;28;20414;-71
2022/05/24 03:35:20;;;;;;;5.15;2.80;;;14.00;99.90;;;;;;5065584;28;20044;-70
2022/05/24 03:37:46;;;;;;;4.18;2.72;;;14.00;99.90;;;;;;5065951;28;20029;-70
2022/05/24 03:40:11;;;;;;;6.10;3.00;;;14.00;99.90;;;;;;5049761;28;20401;-71
2022/05/24 03:42:38;;;;;;;7.90;3.38;;;13.90;99.90;;;;;;5041916;28;20050;-70
2022/05/24 03:45:15;;;;;;;10.63;3.03;;;13.90;99.90;;;;;;5044935;28;20609;-69
2022/05/24 03:47:40;;;;;;;5.57;2.97;;;13.90;99.90;;;;;;5031078;28;20037;-71
2022/05/24 03:50:07;;;;;;;5.15;3.00;;;13.80;99.90;;;;;;5025927;28;20539;-70
2022/05/24 03:52:33;;;;;;;5.50;2.95;;;13.90;99.90;;;;;;5025555;28;20093;-70
2022/05/24 03:54:58;;;;;;;10.43;3.53;;;13.90;99.90;;;;;;5025806;28;20033;-70
2022/05/24 03:58:02;;;;;;;5.05;2.83;;;13.90;99.90;;;;;;5029192;28;20029;-71
2022/05/24 04:00:36;;;;;;;6.18;3.40;;;13.90;99.90;;;;;;5031649;28;20033;-69
2022/05/24 04:03:03;;;;;;;3.72;2.78;;;13.90;99.90;;;;;;5041483;28;20398;-70
2022/05/24 04:05:31;;;;;;;6.53;3.40;;;13.80;99.90;;;;;;5030107;28;20026;-70
2022/05/24 04:07:58;;;;;;;7.07;3.40;;;13.80;99.90;;;;;;5041526;28;20034;-70
2022/05/24 04:10:24;;;;;;;5.97;3.42;;;13.80;99.90;;;;;;5040473;28;20037;-70
2022/05/24 04:12:50;;;;;;;10.38;4.38;;;13.80;99.90;;;;;;5044719;28;20359;-70
2022/05/24 04:15:16;;;;;;;7.28;3.75;;;13.80;99.90;;;;;;5043913;28;20096;-70
2022/05/24 04:17:42;;;;;;;10.05;3.83;;;13.80;99.90;;;;;;5045411;28;20108;-69
2022/05/24 04:20:09;;;;;;;6.18;3.85;;;13.80;99.90;;;;;;5040893;28;20434;-69
2022/05/24 04:22:35;;;;;;;6.60;3.38;;;13.80;99.90;;;;;;5038735;28;20493;-69
2022/05/24 04:25:01;;;;;;;7.15;3.25;;;13.80;99.90;;;;;;5037091;28;20043;-69
2022/05/24 04:27:27;;;;;;;5.18;3.10;;;13.80;99.90;;;;;;5044398;28;20055;-70
2022/05/24 04:29:53;;;;;;;6.80;3.38;;;13.70;99.90;;;;;;5044863;28;20052;-70
2022/05/24 04:32:20;;;;;;;7.10;3.83;;;13.80;99.90;;;;;;5045084;28;20083;-70
2022/05/24 04:34:46;;;;;;;14.43;4.78;;;13.80;99.90;;;;;;5042025;28;20040;-71
2022/05/24 04:37:12;;;;;;;6.95;4.18;;;13.80;99.90;;;;;;5036342;28;20021;-71
2022/05/24 04:39:38;;;;;;;8.82;4.45;;;13.80;99.90;;;;;;5024936;28;20084;-70
2022/05/24 04:42:23;;;;;;;6.13;3.70;;;13.80;99.90;;;;;;5040941;28;20436;-70
2022/05/24 04:44:56;;;;;;;14.70;4.10;;;13.80;99.90;;;;;;5064741;28;20025;-70
2022/05/24 04:47:23;;;;;;;17.23;4.93;;;13.80;99.90;;;;;;5064482;28;20075;-71
2022/05/24 04:49:55;;;;;;;12.80;4.15;;;13.90;99.90;;;;;;5064801;28;20045;-70
2022/05/24 04:52:26;;;;;;;10.50;4.32;;;13.90;99.90;;;;;;5064732;28;20025;-71
2022/05/24 04:54:59;;;;;;;6.35;3.97;;;13.90;99.90;;;;;;5064442;28;20036;-70
2022/05/24 04:57:25;;;;;;;10.07;5.25;;;14.00;99.90;;;;;;5055849;28;20021;-70
2022/05/24 04:59:51;;;;;;;11.38;4.65;;;14.10;99.90;;;;;;5060795;28;20017;-71
2022/05/24 05:02:18;;;;;;;8.95;5.25;;;14.10;99.90;;;;;;5048595;28;20033;-71
2022/05/24 05:04:46;;;;;;;12.05;5.20;;;14.10;99.90;;;;;;5049010;28;20037;-70
2022/05/24 05:07:15;;;;;;;6.90;4.05;;;14.10;99.90;;;;;;5048589;28;20089;-70
2022/05/24 05:09:43;;;;;;;9.15;4.72;;;14.20;99.90;;;;;;5048517;28;20486;-70
2022/05/24 05:12:10;;;;;;;9.40;4.95;;;14.20;99.90;;;;;;5047857;28;20048;-70
2022/05/24 05:14:38;;;;;;;10.10;5.40;;;14.20;99.90;;;;;;5048136;28;20025;-72
2022/05/24 05:17:04;;;;;;;9.82;4.82;;;14.20;99.90;;;;;;5048408;28;20040;-71
2022/05/24 05:19:30;;;;;;;11.82;5.40;;;14.20;99.90;;;;;;5048689;28;20081;-72
2022/05/24 05:21:56;;;;;;;17.75;5.97;;;14.30;99.90;;;;;;5048269;28;20026;-70
2022/05/24 05:24:23;;;;;;;13.38;6.22;;;14.30;99.90;;;;;;5048351;28;20111;-73
2022/05/24 05:26:48;;;;;;;10.25;5.32;;;14.30;99.90;;;;;;5048500;28;20089;-71
2022/05/24 05:29:14;;;;;;;10.10;5.32;;;14.30;99.90;;;;;;5047787;28;20052;-70
2022/05/24 05:31:40;;;;;;;12.93;6.30;;;14.40;99.90;;;;;;5050536;28;20076;-74
2022/05/24 05:34:06;;;;;;;13.43;5.80;;;14.40;99.90;;;;;;5065098;28;20469;-72
2022/05/24 05:36:33;;;;;;;8.63;5.60;;;14.40;99.90;;;;;;5059676;28;20032;-71
2022/05/24 05:38:59;;;;;;;16.52;7.22;;;14.40;99.90;;;;;;5068166;28;20381;-72
2022/05/24 05:41:30;;;;;;;11.48;6.68;;;14.50;99.90;;;;;;5059342;28;20393;-71
2022/05/24 05:43:58;;;;;;;14.68;7.13;;;14.40;99.90;;;;;;5057789;28;20056;-71
2022/05/24 05:46:23;;;;;;;19.13;7.15;;;14.50;99.90;;;;;;5049845;28;20053;-72
2022/05/24 05:48:49;;;;;;;11.48;6.20;;;14.50;99.90;;;;;;5053007;28;20032;-71
2022/05/24 05:51:17;;;;;;;12.27;7.53;;;14.40;99.90;;;;;;5056390;28;20045;-71
2022/05/24 05:53:46;;;;;;;14.05;7.00;;;14.40;99.90;;;;;;5053716;28;20029;-70
2022/05/24 05:56:21;;;;;;;13.57;7.20;;;14.50;99.90;;;;;;5061033;28;20033;-68
2022/05/24 05:58:49;;;;;;;;;;;14.50;99.90;;;;;;5067724;28;20031;-73
2022/05/24 06:01:28;;;;;;;16.15;6.93;;;14.50;99.90;;;;;;5065679;28;19909;-71
2022/05/24 06:03:53;;;;;;;21.02;7.82;;;14.60;99.90;;;;;;5047336;28;20040;-70
2022/05/24 06:06:23;;;;;;;13.98;7.53;;;14.60;99.90;;;;;;5051949;28;20026;-71
2022/05/24 06:08:49;;;;;;;25.02;7.68;;;14.70;99.90;;;;;;5058859;28;20044;-72
2022/05/24 06:11:15;;;;;;;18.33;8.65;;;14.70;99.90;;;;;;5058674;28;20045;-71
2022/05/24 06:13:41;;;;;;;20.33;9.88;;;14.80;99.90;;;;;;5067154;28;20036;-72
2022/05/24 06:16:08;;;;;;;20.88;8.65;;;14.80;99.90;;;;;;5067585;28;20045;-70
2022/05/24 06:18:33;;;;;;;20.15;9.00;;;14.90;99.90;;;;;;5062664;28;20107;-70
2022/05/24 06:20:59;;;;;;;16.20;8.90;;;14.90;99.90;;;;;;5067362;28;20024;-73
2022/05/24 06:23:24;;;;;;;20.75;9.43;;;15.10;99.90;;;;;;5049381;28;20441;-71
2022/05/24 06:25:51;;;;;;;16.00;9.20;;;15.10;99.90;;;;;;5066562;28;20059;-71
2022/05/24 06:28:19;;;;;;;15.75;8.52;;;15.10;99.90;;;;;;5067061;28;20025;-72
2022/05/24 06:30:51;;;;;;;22.60;10.32;;;15.20;99.90;;;;;;5067124;28;20048;-71
2022/05/24 06:33:17;;;;;;;19.10;9.23;;;15.20;99.90;;;;;;5066629;28;20028;-71
2022/05/24 06:35:43;;;;;;;17.92;9.57;;;15.20;99.90;;;;;;5059164;28;20629;-71
2022/05/24 06:38:09;;;;;;;25.63;9.90;;;15.30;99.90;;;;;;5047215;28;20060;-68
2022/05/24 06:40:35;;;;;;;19.35;10.02;;;15.30;99.90;;;;;;5061856;28;20512;-72
2022/05/24 06:43:01;;;;;;;17.95;10.27;;;15.20;99.90;;;;;;5060316;28;20045;-72
2022/05/24 06:45:26;;;;;;;24.42;10.93;;;15.20;99.90;;;;;;5062087;28;20059;-69
2022/05/24 06:47:52;;;;;;;17.50;10.05;;;15.20;99.90;;;;;;5057125;28;20025;-72
2022/05/24 06:50:20;;;;;;;18.80;9.38;;;15.20;99.90;;;;;;5063494;28;20043;-73
2022/05/24 06:52:46;;;;;;;19.63;11.25;;;15.20;99.90;;;;;;5063892;28;20047;-72
2022/05/24 06:55:12;;;;;;;30.90;8.35;;;15.20;99.90;;;;;;5064366;28;20033;-71
2022/05/24 06:57:38;;;;;;;22.25;9.25;;;15.30;99.90;;;;;;5060669;28;20037;-71
2022/05/24 07:03:17;;;;;;;16.67;9.95;;;15.20;99.90;;;;;;5058464;28;20452;-73
2022/05/24 07:05:44;;;;;;;20.58;10.20;;;15.20;99.90;;;;;;5056188;28;20067;-73
2022/05/24 07:08:13;;;;;;;20.88;10.18;;;15.20;99.90;;;;;;5060981;28;20069;-73
2022/05/24 07:10:39;;;;;;;17.38;9.40;;;15.30;99.90;;;;;;5063394;28;20045;-71
2022/05/24 07:13:08;;;;;;;20.02;10.77;;;15.30;99.90;;;;;;5054052;28;20033;-71
2022/05/24 07:15:34;;;;;;;24.08;10.07;;;15.40;99.90;;;;;;5064020;28;20021;-72
2022/05/24 07:18:04;;;;;;;20.48;8.93;;;15.50;99.90;;;;;;5062380;28;20037;-69
2022/05/24 07:20:36;;;;;;;20.60;9.35;;;15.50;99.90;;;;;;5061076;28;20044;-72
2022/05/24 07:23:10;;;;;;;26.27;10.05;;;15.50;99.90;;;;;;5057827;28;20033;-71
2022/05/24 07:25:37;;;;;;;20.00;10.10;;;15.60;99.90;;;;;;5054853;28;20040;-71
2022/05/24 07:28:03;;;;;;;18.85;9.48;;;15.60;99.90;;;;;;5045437;28;20060;-72
2022/05/24 07:30:30;;;;;;;18.38;10.75;;;15.70;99.90;;;;;;5055877;28;20030;-72
2022/05/24 07:32:56;;;;;;;18.80;8.90;;;15.80;99.90;;;;;;5055775;28;20107;-72
2022/05/24 07:35:22;;;;;;;29.95;10.23;;;15.80;99.90;;;;;;5056505;28;20044;-70
2022/05/24 07:37:48;;;;;;;17.88;9.18;;;15.90;99.90;;;;;;5066045;28;20021;-72
2022/05/24 07:48:11;;;;;;;16.27;9.40;;;15.80;99.90;;;;;;5064517;28;20112;-74
2022/05/24 07:50:38;;;;;;;17.40;8.93;;;15.80;99.90;;;;;;5055757;28;20402;-73
2022/05/24 07:53:04;;;;;;;21.42;9.23;;;15.80;99.90;;;;;;5051002;28;20044;-71
2022/05/24 07:55:30;;;;;;;31.30;10.73;;;15.80;99.90;;;;;;5058319;28;20504;-74
2022/05/24 07:57:57;;;;;;;22.60;10.23;;;15.80;99.90;;;;;;5064768;28;20032;-77
2022/05/24 08:00:23;;;;;;;23.80;10.38;;;15.90;99.90;;;;;;5055409;28;20058;-73
2022/05/24 08:02:50;;;;;;;22.08;9.75;;;15.80;99.90;;;;;;5046881;28;20138;-71
2022/05/24 08:05:17;;;;;;;24.90;11.00;;;15.90;99.90;;;;;;5048437;28;20485;-73
2022/05/24 08:07:45;;;;;;;29.08;11.43;;;15.80;99.90;;;;;;5063987;28;20127;-73
2022/05/24 08:10:12;;;;;;;17.63;9.90;;;15.60;99.90;;;;;;5062780;28;20063;-69
2022/05/24 08:12:38;;;;;;;24.42;11.13;;;15.70;99.90;;;;;;5048332;28;20025;-73
2022/05/24 08:15:04;;;;;;;19.80;10.35;;;15.50;99.90;;;;;;5046347;28;20071;-71
2022/05/24 08:17:30;;;;;;;20.25;9.27;;;15.30;99.90;;;;;;5046175;28;20052;-69
2022/05/24 08:19:56;;;;;;;29.20;10.82;;;15.10;99.90;;;;;;5058571;28;20103;-73
2022/05/24 08:22:23;;;;;;;21.48;11.40;;;14.90;99.90;;;;;;5048408;28;20477;-72
2022/05/24 08:24:48;;;;;;;25.90;12.57;;;14.60;99.90;;;;;;5053974;28;20131;-75
2022/05/24 08:27:16;;;;;;;28.48;11.50;;;14.50;99.90;;;;;;5046980;28;20060;-74
2022/05/24 08:29:41;;;;;;;27.95;12.27;;;14.50;99.90;;;;;;5059488;28;20027;-77
2022/05/24 08:32:07;;;;;;;28.75;13.63;;;14.40;99.90;;;;;;5046337;28;20492;-73
2022/05/24 08:34:33;;;;;;;30.50;14.35;;;14.30;99.90;;;;;;5043406;28;20044;-74
2022/05/24 08:37:00;;;;;;;27.55;14.18;;;14.30;99.90;;;;;;5060131;28;20029;-73
2022/05/24 08:39:27;;;;;;;31.42;13.23;;;14.30;99.90;;;;;;5063985;28;20036;-74
2022/05/24 08:42:17;;;;;;;27.60;13.35;;;14.30;99.90;;;;;;5053948;28;20044;-73
2022/05/24 08:50:40;;;;;;;31.45;13.48;;;14.40;99.90;;;;;;5052767;28;20044;-70
2022/05/24 08:53:09;;;;;;;30.85;13.27;;;14.30;99.90;;;;;;5064308;28;20018;-75
2022/05/24 08:55:37;;;;;;;23.30;13.10;;;14.30;99.90;;;;;;5056088;28;20036;-72
2022/05/24 08:58:08;;;;;;;23.63;11.82;;;14.20;99.90;;;;;;5053632;28;20025;-74
2022/05/24 09:00:37;;;;;;;26.92;11.70;;;14.20;99.90;;;;;;5046171;28;20052;-77
2022/05/24 09:03:05;;;;;;;22.80;11.30;;;14.10;99.90;;;;;;5063012;28;20522;-71
2022/05/24 09:05:47;;;;;;;22.70;11.75;;;14.10;99.90;;;;;;5063161;28;20017;-75
2022/05/24 09:08:28;;;;;;;16.63;9.07;;;14.10;99.90;;;;;;5064440;28;20021;-72
2022/05/24 09:11:00;;;;;;;15.15;8.77;;;14.00;99.90;;;;;;5063142;28;20045;-69
2022/05/24 09:13:31;;;;;;;19.77;9.05;;;13.90;99.90;;;;;;5055906;28;20060;-68
2022/05/24 09:16:07;;;;;;;13.57;7.55;;;13.80;99.90;;;;;;5064229;28;20025;-70
2022/05/24 09:18:54;;;;;;;17.65;9.35;;;13.70;99.90;;;;;;5064379;28;20021;-69
2022/05/24 09:21:26;;;;;;;10.52;7.07;;;13.70;99.90;;;;;;5057497;28;20466;-71
2022/05/24 09:24:02;;;;;;;14.25;8.32;;;13.70;99.90;;;;;;5052162;28;20039;-72
2022/05/24 09:26:30;;;;;;;17.48;8.52;;;13.60;99.90;;;;;;5048828;28;20040;-70
2022/05/24 09:29:09;;;;;;;25.50;9.20;;;13.70;99.90;;;;;;5059286;28;20029;-69
2022/05/24 09:31:42;;;;;;;17.05;8.13;;;13.80;99.90;;;;;;5063488;28;20037;-68
2022/05/24 09:34:17;;;;;;;16.50;9.13;;;13.90;99.90;;;;;;5063064;28;20025;-68
2022/05/24 09:37:06;;;;;;;19.08;8.23;;;13.80;99.90;;;;;;5063955;28;20036;-69
2022/05/24 09:39:42;;;;;;;17.27;9.20;;;13.90;99.90;;;;;;5063787;28;20106;-68
2022/05/24 09:42:28;;;;;;;24.58;9.30;;;13.90;99.90;;;;;;5044305;28;20029;-70
2022/05/24 09:45:11;;;;;;;13.77;6.70;;;13.90;99.90;;;;;;5061812;28;20033;-72
2022/05/24 09:47:43;;;;;;;23.13;9.35;;;13.90;99.90;;;;;;5046742;28;20120;-69
2022/05/24 09:50:20;;;;;;;18.42;9.10;;;13.80;99.90;;;;;;5059476;28;20037;-68
2022/05/24 09:53:17;;;;;;;23.35;9.20;;;13.80;99.90;;;;;;5067343;28;20056;-72
2022/05/24 09:56:05;;;;;;;16.55;7.43;;;13.90;99.90;;;;;;5066967;28;20033;-69
2022/05/24 09:58:38;;;;;;;18.27;7.57;;;13.90;99.90;;;;;;5067493;28;20097;-69
2022/05/24 10:01:03;;;;;;;15.88;8.65;;;14.10;99.90;;;;;;5064318;28;20021;-68
2022/05/24 10:03:39;;;;;;;19.83;7.88;;;14.10;99.90;;;;;;5046588;28;20030;-71
2022/05/24 10:06:30;;;;;;;22.92;8.52;;;14.20;99.90;;;;;;5065047;28;20044;-69
2022/05/24 10:09:03;;;;;;;18.50;8.77;;;14.40;99.90;;;;;;5067206;28;20036;-71
2022/05/24 10:11:43;;;;;;;13.95;7.43;;;14.50;99.90;;;;;;5066098;28;20572;-68
2022/05/24 10:14:23;;;;;;;20.15;8.75;;;14.60;99.90;;;;;;5066089;28;20044;-73
2022/05/24 10:16:57;;;;;;;19.08;9.40;;;14.70;99.90;;;;;;5064402;28;20024;-70
2022/05/24 10:19:37;;;;;;;21.63;9.00;;;14.70;99.90;;;;;;5066341;28;20033;-71
2022/05/24 10:22:15;;;;;;;17.88;9.57;;;14.70;99.90;;;;;;5066530;28;20037;-71
2022/05/24 10:25:01;;;;;;;21.10;8.82;;;14.70;99.90;;;;;;5066849;28;20029;-71
2022/05/24 10:28:02;;;;;;;29.60;8.88;;;14.80;99.90;;;;;;5066392;28;20032;-70
2022/05/24 10:30:36;;;;;;;13.85;8.63;;;14.80;99.90;;;;;;5065090;28;20355;-72
2022/05/24 10:39:34;;;;;;;16.33;7.88;;;15.10;99.90;;;;;;5066064;28;20048;-71
2022/05/24 10:42:19;;;;;;;24.63;8.98;;;15.20;99.90;;;;;;5061470;28;20048;-71
2022/05/24 10:44:49;;;;;;;;;;;15.30;99.90;;;;;;5048889;28;20049;-70
2022/05/24 10:47:54;;;;;;;20.65;8.20;;;15.20;99.90;;;;;;5048353;28;19908;-70
2022/05/24 10:50:26;;;;;;;16.15;8.15;;;15.30;99.90;;;;;;5043853;28;20504;-72
2022/05/24 10:52:54;;;;;;;14.85;7.57;;;15.40;99.90;;;;;;5065402;28;20178;-72
2022/05/24 10:55:25;;;;;;;14.77;7.93;;;15.50;99.90;;;;;;5058909;28;20029;-71
2022/05/24 10:58:05;;;;;;;13.68;8.18;;;15.60;99.90;;;;;;5053779;28;20052;-73
2022/05/24 11:00:51;;;;;;;13.68;7.47;;;15.60;99.90;;;;;;5063716;28;20055;-69
2022/05/24 11:03:24;;;;;;;13.02;6.88;;;15.60;99.90;;;;;;5064910;28;20033;-71
2022/05/24 11:06:10;;;;;;;11.45;6.43;;;15.60;99.90;;;;;;5064324;28;20033;-72
2022/05/24 11:09:00;;;;;;;15.75;7.28;;;15.60;99.90;;;;;;5052089;28;20021;-68
2022/05/24 11:11:43;;;;;;;12.00;6.07;;;15.60;99.90;;;;;;5045726;28;20120;-71
2022/05/24 11:14:23;;;;;;;11.93;6.15;;;15.60;99.90;;;;;;5045721;28;20025;-71
2022/05/24 11:16:52;;;;;;;9.90;5.15;;;15.70;99.90;;;;;;5055862;28;20037;-72
2022/05/24 11:19:28;;;;;;;12.02;6.60;;;15.70;99.90;;;;;;5065745;28;20159;-72
2022/05/24 11:22:14;;;;;;;16.38;5.85;;;15.80;99.90;;;;;;5065292;28;20028;-72
2022/05/24 11:25:14;;;;;;;9.65;5.30;;;15.70;99.90;;;;;;5047431;28;20645;-73
2022/05/24 11:27:51;;;;;;;10.93;5.63;;;15.90;99.90;;;;;;5044721;28;20045;-72
2022/05/24 11:30:39;;;;;;;7.05;4.28;;;16.20;99.90;;;;;;5065346;28;20116;-77
2022/05/24 11:33:10;;;;;;;13.75;5.45;;;16.60;99.90;;;;;;5063705;28;20098;-70
2022/05/24 11:35:52;;;;;;;11.25;4.43;;;16.60;99.90;;;;;;5064656;28;20060;-73
2022/05/24 11:38:43;;;;;;;5.40;3.17;;;16.50;99.90;;;;;;5064563;28;20463;-73
2022/05/24 11:41:12;;;;;;;12.70;3.95;;;16.30;99.90;;;;;;5045268;28;20028;-72
2022/05/24 11:43:44;;;;;;;8.88;4.35;;;16.20;99.90;;;;;;5056559;28;20056;-73
2022/05/24 11:46:30;;;;;;;9.57;4.00;;;16.00;99.90;;;;;;5053202;28;20043;-75
2022/05/24 11:48:57;;;;;;;8.85;5.00;;;16.00;99.90;;;;;;5045467;28;20021;-73
2022/05/24 11:51:29;;;;;;;11.88;3.58;;;15.90;99.90;;;;;;5058360;28;20048;-74
2022/05/24 11:53:54;;;;;;;6.55;3.90;;;16.00;99.90;;;;;;5062436;28;20057;-71
2022/05/24 11:56:24;;;;;;;5.85;3.63;;;16.10;99.90;;;;;;5053008;28;20060;-71
2022/05/24 11:59:05;;;;;;;6.72;3.58;;;16.20;99.90;;;;;;5054572;28;20327;-73
2022/05/24 12:01:36;;;;;;;10.05;4.88;;;16.40;99.90;;;;;;5044930;28;20023;-71
2022/05/24 12:10:21;;;;;;;6.03;3.60;;;17.40;99.90;;;;;;4944225;29;20067;-71
2022/05/24 12:13:02;;;;;;;5.65;3.28;;;17.60;99.90;;;;;;4944025;29;20039;-71
2022/05/24 12:15:30;;;;;;;6.20;2.97;;;17.90;99.90;;;;;;5020351;28;20040;-70
2022/05/24 12:17:59;;;;;;;10.32;3.63;;;18.10;99.90;;;;;;5060917;28;20040;-70
2022/05/24 12:20:33;;;;;;;5.65;3.40;;;18.30;99.90;;;;;;5062198;28;20058;-71
2022/05/24 12:23:09;;;;;;;11.00;2.92;;;18.20;99.90;;;;;;5061103;28;20025;-72
2022/05/24 12:26:12;;;;;;;4.80;3.03;;;18.20;99.90;;;;;;5054277;28;20055;-70
2022/05/24 12:28:38;;;;;;;5.20;3.28;;;18.20;99.90;;;;;;5043288;28;20093;-76
2022/05/24 12:31:12;;;;;;;9.73;3.05;;;18.20;99.90;;;;;;5043740;28;20116;-75
2022/05/24 12:33:41;;;;;;;;;;;18.00;99.90;;;;;;5043836;28;20032;-74
2022/05/24 12:36:41;;;;;;;5.40;2.65;;;17.90;99.90;;;;;;5043220;28;19965;-73
2022/05/24 12:39:06;;;;;;;7.18;3.65;;;17.80;99.90;;;;;;5043310;28;20081;-74
2022/05/24 12:41:37;;;;;;;5.65;3.17;;;17.70;99.90;;;;;;5028602;28;20025;-74
2022/05/24 12:44:13;;;;;;;7.07;3.15;;;17.70;99.90;;;;;;5042328;28;20050;-72
2022/05/24 12:46:41;;;;;;;7.65;3.42;;;17.60;99.90;;;;;;5030217;28;20055;-74
2022/05/24 12:49:17;;;;;;;5.35;2.83;;;17.40;99.90;;;;;;5054360;28;20017;-73
2022/05/24 12:51:42;;;;;;;9.75;3.13;;;17.40;99.90;;;;;;5053690;28;20060;-72
2022/05/24 12:54:16;;;;;;;5.25;2.58;;;17.20;99.90;;;;;;5053437;28;20029;-69
2022/05/24 12:56:55;;;;;;;5.55;3.15;;;17.10;99.90;;;;;;5058206;28;20064;-71
2022/05/24 12:59:30;;;;;;;5.70;2.45;;;16.90;99.90;;;;;;5049346;28;20048;-69
2022/05/24 13:01:56;;;;;;;5.50;2.78;;;16.60;99.90;;;;;;5059495;28;20549;-73
2022/05/24 13:04:27;;;;;;;4.53;2.83;;;16.60;99.90;;;;;;5044353;28;20052;-74
2022/05/24 13:06:54;;;;;;;4.90;2.35;;;16.50;99.90;;;;;;5060536;28;20037;-74
2022/05/24 13:09:25;;;;;;;6.68;2.60;;;16.40;99.90;;;;;;5063108;28;20027;-71
2022/05/24 13:12:05;;;;;;;5.03;2.70;;;16.40;99.90;;;;;;5063407;28;20029;-77
2022/05/24 13:14:33;;;;;;;3.25;2.03;;;16.40;99.90;;;;;;5063097;28;20048;-78
2022/05/24 13:16:59;;;;;;;3.17;1.90;;;16.30;99.90;;;;;;5063466;28;20025;-72
2022/05/24 13:19:25;;;;;;;4.90;2.17;;;16.10;99.90;;;;;;5062214;28;20091;-74
2022/05/24 13:21:54;;;;;;;5.78;2.28;;;16.00;99.90;;;;;;5055501;28;20120;-74
2022/05/24 13:24:20;;;;;;;4.50;2.20;;;15.80;99.90;;;;;;5064539;28;20029;-73
2022/05/24 13:27:00;;;;;;;3.00;1.58;;;15.60;99.90;;;;;;5047310;28;20146;-73
2022/05/24 13:29:29;;;;;;;2.00;1.42;;;15.50;99.90;;;;;;5057545;28;20029;-73
2022/05/24 13:35:08;;;;;;;2.47;1.55;;;15.80;99.90;;;;;;4997454;28;20035;-74
2022/05/24 13:37:51;;;;;;;3.88;1.70;;;16.50;99.90;;;;;;4998741;28;20113;-75
2022/05/24 13:40:18;;;;;;;3.53;2.17;;;17.30;99.90;;;;;;5029140;28;20055;-70
2022/05/24 13:42:56;;;;;;;2.70;2.15;;;17.60;99.90;;;;;;5039859;28;20468;-73
2022/05/24 13:45:28;;;;;;;3.25;2.20;;;17.70;99.90;;;;;;5066270;28;20070;-75
2022/05/24 13:47:58;;;;;;;2.45;1.77;;;17.70;99.90;;;;;;5067238;28;20035;-74